Time;durP1;ratioP1;P1;durP2;ratioP2;P2;SDS_P1;SDS_P2;PMS_P1;PMS_P2;Temp;Humidity;BMP_temperature;BMP_pressure;BME280_temperature;BME280_humidity;BME280_pressure;Samples;Min_cycle;Max_cycle;Signal;HPM_P1;HPM_P2
2022/11/22 00:00:17;;;;;;;6.43;3.47;;;;;;;4.90;99.07;93539.25;4968811;28;20196;-83
2022/11/22 00:02:42;;;;;;;7.63;3.60;;;;;;;4.95;99.69;93543.94;4975570;28;20205;-83
2022/11/22 00:05:08;;;;;;;5.03;3.23;;;;;;;4.94;99.63;93539.72;4973658;28;20291;-82
2022/11/22 00:07:33;;;;;;;4.47;3.37;;;;;;;4.98;99.78;93546.16;4974298;28;20268;-84
2022/11/22 00:09:58;;;;;;;7.37;3.60;;;;;;;4.92;99.37;93542.47;4968246;28;20192;-83
2022/11/22 00:12:23;;;;;;;5.97;3.80;;;;;;;4.95;99.74;93542.16;4953541;28;20215;-84
2022/11/22 00:14:49;;;;;;;7.60;3.40;;;;;;;4.96;100.00;93537.81;4951053;28;20255;-82
2022/11/22 00:17:14;;;;;;;5.43;3.60;;;;;;;4.91;99.30;93540.84;4947508;28;20192;-83
2022/11/22 00:19:40;;;;;;;6.13;4.07;;;;;;;4.91;99.75;93529.75;4973422;28;20292;-83
2022/11/22 00:22:06;;;;;;;8.03;4.00;;;;;;;4.90;100.00;93534.09;4973894;28;20560;-83
2022/11/22 00:24:31;;;;;;;7.03;3.57;;;;;;;4.95;100.00;93536.22;4955932;28;20209;-83
2022/11/22 00:26:56;;;;;;;9.47;4.80;;;;;;;4.96;100.00;93537.81;4974771;28;20193;-83
2022/11/22 00:29:22;;;;;;;6.37;4.13;;;;;;;4.93;100.00;93535.53;4952113;28;20188;-83
2022/11/22 00:31:47;;;;;;;9.97;4.17;;;;;;;4.93;100.00;93532.97;4972993;28;20597;-82
2022/11/22 00:34:12;;;;;;;6.07;4.87;;;;;;;4.93;100.00;93535.53;4949290;28;20168;-83
2022/11/22 00:36:38;;;;;;;7.87;4.63;;;;;;;4.95;100.00;93551.66;4953146;28;20259;-84
2022/11/22 00:39:03;;;;;;;7.37;4.90;;;;;;;5.00;100.00;93551.94;4974541;28;20188;-83
2022/11/22 00:41:28;;;;;;;6.40;4.53;;;;;;;4.94;99.98;93557.72;4958227;28;20239;-82
2022/11/22 00:43:53;;;;;;;7.63;4.67;;;;;;;4.84;100.00;93561.28;4947573;28;20213;-82
2022/11/22 00:46:19;;;;;;;8.40;4.77;;;;;;;4.88;100.00;93571.25;4962694;28;20193;-83
2022/11/22 00:48:44;;;;;;;8.87;4.63;;;;;;;5.00;100.00;93564.81;4964054;28;20247;-83
2022/11/22 00:51:11;;;;;;;6.73;4.77;;;;;;;4.99;100.00;93566.56;4972801;28;20660;-82
2022/11/22 00:53:36;;;;;;;10.47;5.50;;;;;;;4.88;100.00;93577.19;4974461;28;20204;-83
2022/11/22 00:56:01;;;;;;;5.87;4.67;;;;;;;5.00;100.00;93585.38;4972757;28;20190;-82
2022/11/22 00:58:26;;;;;;;6.80;4.70;;;;;;;5.03;100.00;93588.44;4973075;28;20605;-84
2022/11/22 01:00:52;;;;;;;6.03;4.40;;;;;;;5.01;100.00;93595.50;4969870;28;20192;-82
2022/11/22 01:03:17;;;;;;;6.17;4.60;;;;;;;4.88;100.00;93597.78;4971330;28;20224;-82
2022/11/22 01:05:42;;;;;;;7.07;4.70;;;;;;;5.04;100.00;93596.97;4963072;28;20222;-82
2022/11/22 01:08:08;;;;;;;6.50;5.00;;;;;;;5.06;99.70;93602.75;4973563;28;20227;-82
2022/11/22 01:10:37;;;;;;;5.40;4.90;;;;;;;5.11;99.37;93608.19;4974399;28;20644;-83
2022/11/22 01:13:03;;;;;;;5.23;3.60;;;;;;;5.16;100.00;93611.09;4985353;28;20243;-83
2022/11/22 01:15:29;;;;;;;5.23;4.60;;;;;;;5.12;99.57;93614.94;4954536;28;20275;-82
2022/11/22 01:17:54;;;;;;;5.03;3.80;;;;;;;5.18;99.96;93621.22;4978332;28;20602;-83
2022/11/22 01:20:19;;;;;;;5.73;4.10;;;;;;;5.10;100.00;93616.88;4975059;28;20205;-82
2022/11/22 01:22:44;;;;;;;4.97;4.37;;;;;;;5.13;100.00;93611.44;4977825;28;20211;-82
2022/11/22 01:25:10;;;;;;;5.00;4.37;;;;;;;5.20;99.73;93614.94;4974506;28;20232;-83
2022/11/22 01:27:35;;;;;;;6.00;4.37;;;;;;;5.22;99.59;93617.38;4967277;28;20205;-83
2022/11/22 01:30:01;;;;;;;7.40;4.20;;;;;;;5.19;99.64;93627.97;4966777;28;20188;-83
2022/11/22 01:32:26;;;;;;;5.43;4.00;;;;;;;5.24;100.00;93626.53;4973306;28;20200;-83
2022/11/22 01:34:51;;;;;;;5.07;4.10;;;;;;;5.19;99.86;93625.41;4969064;28;20184;-82
2022/11/22 01:37:17;;;;;;;4.87;3.77;;;;;;;5.19;100.00;93627.97;4980522;28;20200;-84
2022/11/22 01:39:42;;;;;;;4.80;3.20;;;;;;;5.22;100.00;93630.25;4982904;28;20672;-83
2022/11/22 01:42:09;;;;;;;6.70;3.40;;;;;;;5.24;100.00;93628.31;4981823;28;20356;-84
2022/11/22 01:44:35;;;;;;;6.10;3.67;;;;;;;5.35;99.74;93631.34;4980425;28;20219;-84
2022/11/22 01:47:12;;;;;;;5.23;3.27;;;;;;;5.31;100.00;93621.56;4973380;28;20192;-84
2022/11/22 01:49:55;;;;;;;5.73;2.73;;;;;;;5.25;100.00;93630.72;4964967;28;20219;-84
2022/11/22 01:52:22;;;;;;;5.00;3.00;;;;;;;5.32;100.00;93647.13;4995401;28;20208;-83
2022/11/22 01:54:54;;;;;;;4.83;3.00;;;;;;;5.45;99.59;93645.81;4964139;28;20180;-83
2022/11/22 01:57:23;;;;;;;8.33;3.70;;;;;;;5.46;98.78;93650.81;4976261;28;20191;-83
2022/11/22 01:59:53;;;;;;;5.77;3.80;;;;;;;5.32;100.00;93647.13;4986604;28;20200;-83
2022/11/22 02:02:18;;;;;;;3.63;2.70;;;;;;;5.24;100.00;93648.91;4974082;28;20215;-84
2022/11/22 02:04:44;;;;;;;5.77;2.17;;;;;;;5.23;100.00;93637.00;4985222;28;20216;-84
2022/11/22 02:07:22;;;;;;;8.37;2.50;;;;;;;5.35;99.26;93646.78;4983731;28;20185;-84
2022/11/22 02:09:50;;;;;;;5.70;2.33;;;;;;;5.47;98.75;93642.09;4982113;28;20199;-83
2022/11/22 02:12:16;;;;;;;8.37;2.27;;;;;;;5.50;98.47;93646.16;4969491;28;20236;-83
2022/11/22 02:14:42;;;;;;;9.27;2.10;;;;;;;5.46;99.01;93642.28;4961814;28;20192;-83
2022/11/22 02:17:07;;;;;;;10.43;2.00;;;;;;;5.38;98.75;93637.94;4981481;28;20185;-83
2022/11/22 02:19:42;;;;;;;8.03;2.07;;;;;;;5.50;97.81;93633.28;4984275;28;20184;-84
2022/11/22 02:22:42;;;;;;;5.57;1.80;;;;;;;5.47;97.48;93631.81;4971235;28;20719;-84
2022/11/22 02:25:14;;;;;;;5.27;1.70;;;;;;;5.51;97.18;93651.13;4974476;28;20188;-83
2022/11/22 02:27:40;;;;;;;10.50;2.30;;;;;;;5.50;96.39;93638.44;4979517;28;20196;-84
2022/11/22 02:30:06;;;;;;;5.10;1.80;;;;;;;5.45;95.53;93640.66;4967076;28;20192;-83
2022/11/22 02:32:31;;;;;;;8.23;1.70;;;;;;;5.52;95.25;93646.78;4958190;28;20563;-83
2022/11/22 02:34:56;;;;;;;8.10;2.20;;;;;;;5.54;95.45;93645.66;4977126;28;20629;-83
2022/11/22 02:37:25;;;;;;;8.00;2.30;;;;;;;5.42;95.26;93648.72;4979051;28;20213;-83
2022/11/22 02:39:55;;;;;;;5.90;1.70;;;;;;;5.51;94.91;93653.69;4973298;28;20199;-84
2022/11/22 02:42:21;;;;;;;11.40;2.57;;;;;;;5.50;94.75;93661.59;4977121;28;20215;-83
2022/11/22 02:44:46;;;;;;;9.47;2.60;;;;;;;5.51;94.91;93670.91;4969225;28;20680;-84
2022/11/22 02:47:11;;;;;;;9.97;1.90;;;;;;;5.53;95.03;93668.97;4951977;28;20622;-83
2022/11/22 02:49:37;;;;;;;10.80;1.93;;;;;;;5.49;95.73;93665.13;4971884;28;20204;-82
2022/11/22 02:52:02;;;;;;;5.20;2.20;;;;;;;5.51;95.38;93664.00;4980444;28;20213;-83
2022/11/22 02:54:27;;;;;;;8.03;2.40;;;;;;;5.55;95.00;93659.31;4978228;28;20207;-84
2022/11/22 02:56:53;;;;;;;7.80;1.60;;;;;;;5.50;95.01;93672.69;4958677;28;20198;-83
2022/11/22 02:59:18;;;;;;;5.33;2.10;;;;;;;5.48;95.36;93663.50;4955560;28;20180;-84
2022/11/22 03:01:45;;;;;;;11.03;1.97;;;;;;;5.50;95.59;93674.47;4957005;28;20191;-84
2022/11/22 03:04:23;;;;;;;6.70;1.60;;;;;;;5.44;95.34;93672.53;4971635;28;20209;-84
2022/11/22 03:06:49;;;;;;;8.80;2.20;;;;;;;5.43;94.81;93687.19;4971839;28;20272;-83
2022/11/22 03:09:14;;;;;;;8.43;1.70;;;;;;;5.41;94.42;93681.38;4976084;28;20209;-84
2022/11/22 03:11:39;;;;;;;7.07;2.13;;;;;;;5.37;94.58;93680.88;4972268;28;20193;-83
2022/11/22 03:14:04;;;;;;;14.00;1.93;;;;;;;5.36;94.68;93683.63;4976465;28;20227;-84
2022/11/22 03:16:30;;;;;;;8.43;2.13;;;;;;;5.33;94.39;93683.97;4970136;28;20256;-83
2022/11/22 03:18:55;;;;;;;9.47;2.37;;;;;;;5.26;94.55;93680.41;4977583;28;20180;-83
2022/11/22 03:21:21;;;;;;;7.43;1.93;;;;;;;5.31;94.36;93694.44;4950661;28;20563;-83
2022/11/22 03:23:46;;;;;;;11.07;2.47;;;;;;;5.28;94.09;93697.31;4972665;28;20231;-84
2022/11/22 03:26:11;;;;;;;11.20;2.40;;;;;;;5.27;93.54;93693.13;4975599;28;20205;-83
2022/11/22 03:28:37;;;;;;;11.70;2.37;;;;;;;5.28;93.48;93696.50;4976483;28;20535;-83
2022/11/22 03:31:06;;;;;;;14.83;2.07;;;;;;;5.29;93.17;93704.06;4978323;28;20193;-83
2022/11/22 03:33:32;;;;;;;9.27;2.20;;;;;;;5.28;93.32;93705.03;4977498;28;20200;-83
2022/11/22 03:35:57;;;;;;;16.50;2.17;;;;;;;5.28;92.92;93702.44;4962755;28;20257;-83
2022/11/22 03:38:23;;;;;;;13.43;2.40;;;;;;;5.30;92.78;93710.00;4974154;28;20657;-83
2022/11/22 03:40:48;;;;;;;14.33;2.87;;;;;;;5.29;93.04;93711.78;4968432;28;20204;-83
2022/11/22 03:43:13;;;;;;;8.80;2.53;;;;;;;5.25;93.41;93705.34;4952890;28;20336;-83
2022/11/22 03:45:44;;;;;;;6.70;3.20;;;;;;;5.23;93.52;93717.59;4974997;28;20246;-84
2022/11/22 03:48:09;;;;;;;8.57;2.17;;;;;;;5.19;93.82;93716.28;4972123;28;20561;-84
2022/11/22 03:50:34;;;;;;;10.63;3.30;;;;;;;5.21;93.64;93709.22;4967432;28;20189;-83
2022/11/22 03:52:59;;;;;;;5.03;1.97;;;;;;;5.05;93.54;93711.78;4976582;28;20212;-83
2022/11/22 03:55:25;;;;;;;6.33;1.90;;;;;;;5.19;92.43;93703.41;4958788;28;20275;-83
2022/11/22 03:57:50;;;;;;;10.30;2.00;;;;;;;5.23;92.44;93703.91;4952799;28;20211;-84
2022/11/22 04:00:15;;;;;;;8.97;1.77;;;;;;;5.18;91.93;93713.88;4975666;28;20187;-83
2022/11/22 04:02:41;;;;;;;6.63;2.17;;;;;;;5.19;91.72;93725.75;4964622;28;20212;-83
2022/11/22 04:05:06;;;;;;;8.83;2.17;;;;;;;5.10;90.85;93719.81;4968265;28;20184;-83
2022/11/22 04:07:32;;;;;;;10.93;2.03;;;;;;;5.18;90.72;93721.59;4970090;28;20632;-83
2022/11/22 04:09:57;;;;;;;7.87;1.90;;;;;;;5.20;90.21;93729.94;4974982;28;20590;-83
2022/11/22 04:12:22;;;;;;;9.27;2.13;;;;;;;5.17;90.56;93718.22;4955801;28;20208;-82
2022/11/22 04:15:06;;;;;;;7.27;1.90;;;;;;;5.17;90.29;93719.97;4963858;28;20196;-82
2022/11/22 04:17:44;;;;;;;10.83;2.43;;;;;;;5.17;90.70;93720.78;4974425;28;20189;-83
2022/11/22 04:23:09;;;;;;;8.20;3.33;;;;;;;5.21;90.50;93719.53;4964595;28;21004;-82
2022/11/22 04:25:36;;;;;;;9.97;1.90;;;;;;;5.17;89.77;93710.50;4957012;28;20187;-83
2022/11/22 04:28:02;;;;;;;6.77;1.67;;;;;;;5.24;89.76;93706.31;4976352;28;20933;-83
2022/11/22 04:33:13;;;;;;;9.53;2.30;;;;;;;5.21;89.69;93703.25;4979469;28;20230;-83
2022/11/22 04:35:39;;;;;;;12.00;2.37;;;;;;;5.15;89.46;93698.75;4980543;28;20188;-84
2022/11/22 04:38:04;;;;;;;11.73;2.20;;;;;;;5.05;89.43;93701.47;4975893;28;20218;-84
2022/11/22 04:40:31;;;;;;;9.53;1.90;;;;;;;5.07;89.63;93709.84;4978666;28;20626;-84
2022/11/22 04:45:40;;;;;;;9.53;2.07;;;;;;;4.89;90.28;93701.44;4980507;28;20207;-83
2022/11/22 04:48:05;;;;;;;9.27;2.00;;;;;;;4.83;90.59;93703.69;4958271;28;20188;-83
2022/11/22 04:53:16;;;;;;;5.90;1.63;;;;;;;4.78;91.26;93710.28;4986894;28;20268;-84
2022/11/22 04:55:43;;;;;;;6.80;2.33;;;;;;;4.79;91.06;93707.53;4980026;28;20184;-82
2022/11/22 04:58:08;;;;;;;9.93;2.70;;;;;;;4.78;91.33;93700.78;4980876;28;20279;-84
2022/11/22 05:00:34;;;;;;;9.27;2.37;;;;;;;4.78;90.93;93708.50;4981643;28;20219;-83
2022/11/22 05:02:59;;;;;;;12.40;2.50;;;;;;;4.91;90.87;93708.03;4982630;28;20692;-84
2022/11/22 05:05:25;;;;;;;7.03;1.70;;;;;;;4.88;91.45;93720.41;4992765;28;20279;-83
2022/11/22 05:07:51;;;;;;;8.37;2.20;;;;;;;4.84;91.81;93720.72;4976707;28;20681;-83
2022/11/22 05:10:16;;;;;;;8.63;2.00;;;;;;;4.97;91.58;93712.56;4975366;28;20538;-82
2022/11/22 05:12:42;;;;;;;6.13;2.10;;;;;;;5.01;91.40;93715.59;4981658;28;20207;-82
2022/11/22 05:15:08;;;;;;;9.93;2.00;;;;;;;4.85;93.06;93721.53;4979136;28;20192;-83
2022/11/22 05:17:34;;;;;;;11.00;1.97;;;;;;;4.98;92.37;93715.94;4974868;28;20283;-84
2022/11/22 05:19:59;;;;;;;11.17;2.30;;;;;;;5.02;92.20;93704.34;4977329;28;20255;-83
2022/11/22 05:25:12;;;;;;;10.57;5.43;;;;;;;4.95;91.86;93701.63;4978471;28;20202;-82
2022/11/22 05:27:37;;;;;;;7.43;2.80;;;;;;;4.87;92.04;93705.97;4979835;28;20602;-83
2022/11/22 05:30:03;;;;;;;6.40;2.33;;;;;;;4.87;92.07;93708.53;4986770;28;20220;-83
2022/11/22 05:32:30;;;;;;;10.50;4.63;;;;;;;4.77;92.37;93704.34;4958575;23;20645;-83
2022/11/22 05:34:55;;;;;;;11.23;2.07;;;;;;;4.67;92.95;93706.22;4945626;29;20252;-84
2022/11/22 05:37:21;;;;;;;8.90;2.10;;;;;;;4.67;92.64;93702.84;4958029;29;20192;-84
2022/11/22 05:39:46;;;;;;;9.47;1.90;;;;;;;4.62;93.42;93715.38;4957225;28;20197;-83
2022/11/22 05:42:11;;;;;;;6.10;1.60;;;;;;;4.52;93.85;93720.66;4947176;29;20285;-83
2022/11/22 05:44:37;;;;;;;5.83;1.70;;;;;;;4.53;93.43;93717.91;4939869;29;20276;-82
2022/11/22 05:47:02;;;;;;;11.57;2.07;;;;;;;4.43;94.02;93721.56;4957333;28;20610;-82
2022/11/22 05:49:27;;;;;;;4.90;1.57;;;;;;;4.45;93.80;93735.06;4938518;29;20193;-82
2022/11/22 05:51:53;;;;;;;7.50;1.77;;;;;;;4.35;93.97;93729.25;4942896;29;20206;-82
2022/11/22 05:54:18;;;;;;;8.30;2.27;;;;;;;4.49;92.54;93723.50;4915849;29;20315;-82
2022/11/22 05:56:43;;;;;;;7.60;2.17;;;;;;;4.50;92.64;93728.47;4937969;29;20212;-84
2022/11/22 05:59:09;;;;;;;11.53;2.00;;;;;;;4.46;92.49;93734.09;4933287;29;20225;-84
2022/11/22 06:01:34;;;;;;;10.13;1.80;;;;;;;4.51;92.51;93730.13;4954078;28;20200;-85
2022/11/22 06:03:59;;;;;;;8.70;2.20;;;;;;;4.47;92.60;93736.50;4956446;29;20209;-84
2022/11/22 06:06:25;;;;;;;9.10;2.40;;;;;;;4.49;92.28;93738.94;4963296;28;20242;-84
2022/11/22 06:08:50;;;;;;;15.90;2.00;;;;;;;4.45;92.31;93741.00;4939435;29;20232;-83
2022/11/22 06:11:24;;;;;;;6.67;1.67;;;;;;;4.36;92.67;93746.28;4939483;29;20193;-84
2022/11/22 06:13:51;;;;;;;8.27;1.80;;;;;;;4.45;92.17;93747.91;4939253;29;20269;-84
2022/11/22 06:16:17;;;;;;;10.30;2.00;;;;;;;4.54;91.61;93754.69;4935874;29;20213;-85
2022/11/22 06:18:42;;;;;;;9.37;1.80;;;;;;;4.50;91.66;93755.94;4941027;29;20563;-83
2022/11/22 06:21:17;;;;;;;11.70;2.23;;;;;;;4.53;91.64;93758.22;4956165;29;20190;-84
2022/11/22 06:23:42;;;;;;;5.00;1.57;;;;;;;4.50;91.57;93767.03;4937315;29;20240;-84
2022/11/22 06:26:14;;;;;;;8.83;1.60;;;;;;;4.52;91.38;93761.78;4915783;29;20204;-85
2022/11/22 06:28:40;;;;;;;8.50;2.00;;;;;;;4.52;90.56;93772.84;4940054;29;20277;-84
2022/11/22 06:31:07;;;;;;;6.30;1.67;;;;;;;4.52;90.68;93772.84;4939211;29;20205;-87
2022/11/22 06:33:38;;;;;;;4.73;1.63;;;;;;;4.57;90.01;93780.09;4941262;29;20338;-86
2022/11/22 06:36:08;;;;;;;7.20;1.83;;;;;;;4.48;90.30;93783.59;4946545;29;20188;-82
2022/11/22 06:38:34;;;;;;;7.97;1.97;;;;;;;4.52;89.93;93788.28;4936683;29;20236;-82
2022/11/22 06:41:01;;;;;;;7.93;2.10;;;;;;;4.49;89.75;93795.47;4963099;28;20190;-82
2022/11/22 06:43:28;;;;;;;6.63;1.43;;;;;;;4.47;89.11;93802.53;4953066;29;20297;-84
2022/11/22 06:45:57;;;;;;;5.63;1.60;;;;;;;4.52;88.71;93802.91;4943756;29;20222;-84
2022/11/22 06:48:23;;;;;;;6.67;1.90;;;;;;;4.52;89.18;93813.97;4942836;29;20222;-83
2022/11/22 06:50:48;;;;;;;7.00;2.10;;;;;;;4.51;89.26;93821.84;4934630;29;20586;-84
2022/11/22 06:53:14;;;;;;;7.53;1.93;;;;;;;4.57;88.36;93820.41;4963836;28;20269;-84
2022/11/22 06:55:39;;;;;;;10.70;2.03;;;;;;;4.65;88.33;93826.41;4941714;29;20583;-84
2022/11/22 06:58:05;;;;;;;10.93;1.90;;;;;;;4.54;88.58;93836.97;4951852;29;20258;-84
2022/11/22 07:00:30;;;;;;;10.60;1.93;;;;;;;4.63;88.91;93841.19;4924469;29;20191;-85
2022/11/22 07:02:55;;;;;;;5.77;1.47;;;;;;;4.72;88.57;93829.97;4919905;29;20903;-84
2022/11/22 07:05:21;;;;;;;9.20;1.90;;;;;;;4.72;88.36;93842.03;4940646;29;20193;-85
2022/11/22 07:07:46;;;;;;;9.27;1.70;;;;;;;4.51;89.04;93839.84;4934004;29;20207;-84
2022/11/22 07:10:11;;;;;;;8.33;1.63;;;;;;;4.74;87.79;93838.34;4941333;29;20200;-84
2022/11/22 07:12:36;;;;;;;9.13;1.87;;;;;;;4.69;87.76;93829.50;4954915;28;20217;-84
2022/11/22 07:15:02;;;;;;;9.77;2.13;;;;;;;4.78;87.57;93838.84;4916673;29;20202;-84
2022/11/22 07:17:27;;;;;;;9.67;3.03;;;;;;;4.70;87.97;93839.63;4939007;29;20620;-84
2022/11/22 07:19:52;;;;;;;6.37;1.60;;;;;;;4.66;88.05;93842.63;4956013;29;20228;-84
2022/11/22 07:22:18;;;;;;;7.90;2.00;;;;;;;4.65;87.77;93841.03;4939218;29;20690;-84
2022/11/22 07:24:43;;;;;;;12.37;6.37;;;;;;;4.68;87.84;93846.69;4953980;29;20212;-84
2022/11/22 07:27:08;;;;;;;7.63;4.20;;;;;;;4.73;87.66;93846.22;4954900;29;20182;-84
2022/11/22 07:29:36;;;;;;;13.83;7.33;;;;;;;4.75;87.70;93845.09;4916217;29;20607;-84
2022/11/22 07:32:02;;;;;;;15.63;8.83;;;;;;;4.82;86.96;93848.66;4916935;29;20317;-82
2022/11/22 07:34:27;;;;;;;8.77;4.17;;;;;;;4.81;87.11;93853.97;4928328;29;20773;-83
2022/11/22 07:36:52;;;;;;;8.57;3.00;;;;;;;4.87;86.77;93857.69;4912077;29;20193;-83
2022/11/22 07:39:17;;;;;;;5.50;1.77;;;;;;;4.91;87.43;93859.00;4933773;29;20200;-84
2022/11/22 07:41:43;;;;;;;9.43;2.00;;;;;;;4.93;87.35;93863.00;4950748;29;20731;-83
2022/11/22 07:44:08;;;;;;;7.67;2.03;;;;;;;4.78;87.85;93867.94;4934639;29;20210;-83
2022/11/22 07:46:33;;;;;;;7.10;2.60;;;;;;;4.91;87.82;93866.72;4927619;29;20209;-82
2022/11/22 07:49:00;;;;;;;11.43;2.70;;;;;;;4.82;87.79;93874.38;4931274;29;20190;-84
2022/11/22 07:51:25;;;;;;;7.10;2.33;;;;;;;4.77;88.21;93879.19;4938060;29;20242;-83
2022/11/22 07:53:50;;;;;;;12.47;2.10;;;;;;;4.79;87.58;93877.28;4954292;28;20709;-84
2022/11/22 07:56:16;;;;;;;8.87;1.90;;;;;;;4.83;87.50;93883.72;4935654;29;20232;-83
2022/11/22 07:58:42;;;;;;;8.33;2.60;;;;;;;4.79;87.99;93885.00;4944814;29;20325;-84
2022/11/22 08:01:17;;;;;;;10.17;3.27;;;;;;;4.83;86.97;93888.84;4906681;29;20190;-83
2022/11/22 08:03:43;;;;;;;6.17;2.73;;;;;;;4.99;86.59;93893.28;4951324;29;20583;-85
2022/11/22 08:06:10;;;;;;;8.73;2.63;;;;;;;5.08;86.24;93897.50;4939578;29;20193;-85
2022/11/22 08:08:35;;;;;;;5.87;2.40;;;;;;;5.11;85.59;93901.53;4944945;29;20185;-84
2022/11/22 08:11:01;;;;;;;7.50;1.77;;;;;;;5.23;85.48;93897.72;4953025;28;20272;-85
2022/11/22 08:13:26;;;;;;;4.93;1.80;;;;;;;5.27;85.51;93903.34;4915352;29;20197;-85
2022/11/22 08:15:52;;;;;;;9.50;2.20;;;;;;;5.26;84.92;93896.59;4928533;29;20561;-83
2022/11/22 08:18:17;;;;;;;6.73;2.30;;;;;;;5.39;84.40;93902.94;4934573;29;20185;-83
2022/11/22 08:20:42;;;;;;;8.47;3.33;;;;;;;5.29;85.36;93915.09;4912492;29;20181;-83
2022/11/22 08:23:08;;;;;;;6.67;3.00;;;;;;;5.37;85.54;93907.41;4928285;29;20209;-84
2022/11/22 08:25:33;;;;;;;8.50;2.10;;;;;;;5.35;84.61;93904.19;4916064;29;20212;-83
2022/11/22 08:27:58;;;;;;;12.90;2.77;;;;;;;5.51;84.00;93902.63;4936510;29;20186;-84
2022/11/22 08:30:24;;;;;;;6.73;2.57;;;;;;;5.42;82.37;93891.50;4939565;29;20189;-84
2022/11/22 08:32:50;;;;;;;9.37;2.80;;;;;;;5.57;82.87;93897.69;4935704;29;20718;-84
2022/11/22 08:35:15;;;;;;;5.63;2.50;;;;;;;5.58;82.92;93894.13;4938378;29;20276;-83
2022/11/22 08:37:41;;;;;;;3.77;1.70;;;;;;;5.53;83.12;93895.56;4955202;29;20663;-83
2022/11/22 08:40:06;;;;;;;5.57;1.80;;;;;;;5.55;82.82;93901.34;4931917;29;20563;-86
2022/11/22 08:42:32;;;;;;;6.00;1.60;;;;;;;5.74;82.12;93908.78;4940156;29;20244;-85
2022/11/22 08:44:57;;;;;;;7.83;2.00;;;;;;;5.73;82.18;93894.31;4938152;29;20209;-84
2022/11/22 08:47:22;;;;;;;8.00;1.83;;;;;;;5.59;82.74;93892.38;4938529;29;20197;-82
2022/11/22 08:49:48;;;;;;;7.30;1.80;;;;;;;5.49;82.91;93892.50;4954255;29;20275;-84
2022/11/22 08:52:13;;;;;;;6.80;1.80;;;;;;;5.65;82.65;93894.28;4938319;29;20217;-83
2022/11/22 08:54:38;;;;;;;6.30;1.93;;;;;;;5.73;81.95;93888.34;4919223;29;20185;-83
2022/11/22 08:57:04;;;;;;;7.47;1.87;;;;;;;5.66;82.65;93880.47;4953538;29;20190;-84
2022/11/22 08:59:29;;;;;;;5.60;2.30;;;;;;;5.82;82.41;93880.47;4911379;29;20197;-85
2022/11/22 09:01:54;;;;;;;10.97;2.47;;;;;;;5.73;81.88;93875.47;4937138;29;20221;-83
2022/11/22 09:04:20;;;;;;;6.43;1.97;;;;;;;5.68;81.51;93878.53;4919381;29;20208;-84
2022/11/22 09:06:45;;;;;;;5.83;2.60;;;;;;;5.64;81.91;93885.75;4937744;29;20694;-84
2022/11/22 09:09:10;;;;;;;8.03;1.97;;;;;;;5.69;82.38;93885.28;4937962;29;20194;-84
2022/11/22 09:11:36;;;;;;;4.47;1.33;;;;;;;5.75;81.88;93884.66;4931348;29;20200;-84
2022/11/22 09:14:01;;;;;;;5.13;1.73;;;;;;;5.65;81.96;93878.84;4918938;29;20566;-84
2022/11/22 09:16:27;;;;;;;4.90;1.90;;;;;;;5.69;81.60;93875.00;4952655;29;20182;-84
2022/11/22 09:18:53;;;;;;;7.30;2.10;;;;;;;5.78;80.77;93874.03;4952805;28;20181;-85
2022/11/22 09:21:19;;;;;;;5.97;1.50;;;;;;;5.89;80.92;93865.19;4944781;29;20188;-82
2022/11/22 09:23:46;;;;;;;6.50;1.90;;;;;;;5.84;80.69;93868.25;4952990;29;20257;-83
2022/11/22 09:26:14;;;;;;;5.90;2.00;;;;;;;5.85;81.11;93869.88;4953680;29;20221;-84
2022/11/22 09:28:39;;;;;;;5.27;1.83;;;;;;;5.75;80.63;93871.78;4953782;29;20241;-84
2022/11/22 09:31:23;;;;;;;8.07;1.97;;;;;;;5.90;80.83;93871.94;4937478;29;20186;-83
2022/11/22 09:33:48;;;;;;;11.97;2.10;;;;;;;5.86;80.63;93880.97;4936862;29;20214;-83
2022/11/22 09:36:19;;;;;;;6.47;2.20;;;;;;;6.02;80.50;93881.03;4924584;29;20197;-83
2022/11/22 09:38:45;;;;;;;6.87;1.70;;;;;;;6.13;80.21;93891.00;4960211;28;20186;-83
2022/11/22 09:41:48;;;;;;;4.73;1.67;;;;;;;5.86;78.12;93893.84;4952228;29;20188;-85
2022/11/22 09:44:25;;;;;;;7.10;1.87;;;;;;;5.97;76.51;93886.66;4935860;29;20197;-85
2022/11/22 09:46:58;;;;;;;4.80;2.00;;;;;;;6.10;75.88;93887.97;4935177;29;20271;-85
2022/11/22 09:49:33;;;;;;;5.67;1.77;;;;;;;6.06;76.31;93881.50;4921138;29;20273;-84
2022/11/22 09:51:58;;;;;;;4.73;1.57;;;;;;;6.06;75.41;93887.47;4936184;29;20232;-84
2022/11/22 09:54:27;;;;;;;4.30;1.70;;;;;;;6.22;74.84;93886.66;4936630;29;20654;-83
2022/11/22 09:56:54;;;;;;;6.57;1.60;;;;;;;6.22;75.10;93899.53;4951622;29;20230;-83
2022/11/22 09:59:27;;;;;;;4.43;1.23;;;;;;;6.24;75.06;93895.03;4928444;29;20682;-84
2022/11/22 10:02:15;;;;;;;3.53;1.13;;;;;;;6.32;74.17;93901.97;4962143;28;20689;-83
2022/11/22 10:04:47;;;;;;;5.30;1.50;;;;;;;5.82;74.61;93916.53;4950489;29;20194;-83
2022/11/22 10:07:29;;;;;;;7.37;1.40;;;;;;;6.19;74.85;93917.94;4935376;29;20647;-81
2022/11/22 10:10:10;;;;;;;8.50;2.93;;;;;;;6.31;73.85;93916.63;4932214;29;20193;-84
2022/11/22 10:13:06;;;;;;;5.80;1.67;;;;;;;6.23;74.27;93919.19;4944770;28;20205;-83
2022/11/22 10:15:36;;;;;;;6.30;1.37;;;;;;;6.37;73.63;93923.72;4951133;29;20190;-84
2022/11/22 10:18:10;;;;;;;4.40;1.77;;;;;;;6.50;72.86;93930.97;4938126;29;20213;-84
2022/11/22 10:20:39;;;;;;;5.70;1.13;;;;;;;6.24;72.04;93931.91;4949242;29;20193;-84
2022/11/22 10:23:14;;;;;;;5.87;1.73;;;;;;;6.38;72.06;93938.22;4944470;29;20212;-85
2022/11/22 10:25:47;;;;;;;7.63;1.47;;;;;;;6.34;71.82;93939.50;4955468;29;20189;-85
2022/11/22 10:28:28;;;;;;;7.10;2.93;;;;;;;6.62;71.53;93936.59;4941122;29;20245;-85
2022/11/22 10:31:02;;;;;;;5.57;2.00;;;;;;;6.44;70.98;93936.75;4931040;29;20193;-85
2022/11/22 10:33:51;;;;;;;8.83;4.33;;;;;;;6.62;70.57;93937.38;4956964;29;20209;-86
2022/11/22 10:36:43;;;;;;;9.53;4.37;;;;;;;6.83;70.53;93944.63;4940001;29;20241;-84
2022/11/22 10:39:30;;;;;;;4.53;3.20;;;;;;;7.09;70.11;93947.00;4940489;29;20200;-85
2022/11/22 10:41:58;;;;;;;5.80;2.10;;;;;;;7.17;69.55;93947.00;4941024;29;20202;-85
2022/11/22 10:44:47;;;;;;;7.87;3.83;;;;;;;7.28;71.69;93948.41;4940391;29;20209;-83
2022/11/22 10:47:17;;;;;;;5.10;2.60;;;;;;;7.33;71.59;93943.53;4939369;29;20268;-85
2022/11/22 10:49:54;;;;;;;8.47;2.50;;;;;;;7.44;71.33;93943.19;4936271;29;20184;-84
2022/11/22 10:52:37;;;;;;;5.97;1.97;;;;;;;7.41;72.01;93943.50;4953398;28;20213;-85
2022/11/22 10:55:33;;;;;;;4.60;1.63;;;;;;;7.37;70.85;93934.50;4954390;29;20186;-84
2022/11/22 10:58:50;;;;;;;2.50;1.40;;;;;;;7.33;70.71;93934.03;4940056;29;20185;-86
2022/11/22 11:01:44;;;;;;;3.53;1.17;;;;;;;7.12;71.48;93923.44;4936288;29;20194;-86
2022/11/22 11:04:11;;;;;;;5.80;1.87;;;;;;;7.24;70.92;93919.50;4919124;29;20217;-85
2022/11/22 11:06:41;;;;;;;4.33;1.67;;;;;;;7.20;69.70;93920.03;4937613;29;20753;-82
2022/11/22 11:09:17;;;;;;;3.93;1.97;;;;;;;7.34;69.03;93920.16;4934162;29;20258;-84
2022/11/22 11:11:44;;;;;;;3.93;1.33;;;;;;;7.28;69.27;93925.97;4920542;29;20205;-86
2022/11/22 11:14:22;;;;;;;5.10;1.63;;;;;;;7.02;70.23;93925.41;4918923;29;20579;-85
2022/11/22 11:16:48;;;;;;;2.17;1.40;;;;;;;6.89;71.35;93918.19;4917312;29;20212;-85
2022/11/22 11:19:16;;;;;;;4.63;1.50;;;;;;;7.17;71.02;93923.75;4939412;29;20186;-85
2022/11/22 11:21:42;;;;;;;5.03;1.60;;;;;;;6.94;70.92;93915.91;4924328;29;20193;-84
2022/11/22 11:24:14;;;;;;;4.53;2.00;;;;;;;7.01;71.54;93918.63;4923280;29;20273;-86
2022/11/22 11:26:41;;;;;;;6.10;1.70;;;;;;;6.76;71.63;93923.03;4921550;29;20550;-85
2022/11/22 11:29:18;;;;;;;6.97;1.63;;;;;;;6.74;71.79;93919.81;4922546;29;20313;-86
2022/11/22 11:32:04;;;;;;;3.13;1.33;;;;;;;6.55;70.94;93912.44;4937519;29;20189;-85
2022/11/22 11:34:29;;;;;;;7.03;3.20;;;;;;;6.79;71.55;93912.38;4921809;29;20181;-86
2022/11/22 11:36:56;;;;;;;5.23;2.30;;;;;;;6.71;72.58;93907.22;4910321;29;20574;-85
2022/11/22 11:39:26;;;;;;;7.50;1.90;;;;;;;6.74;71.78;93912.88;4953736;29;20663;-86
2022/11/22 11:41:51;;;;;;;7.53;3.33;;;;;;;6.44;73.66;93900.66;4939057;29;20190;-85
2022/11/22 11:44:26;;;;;;;7.77;2.60;;;;;;;6.59;73.51;93890.50;4910726;29;20210;-85
2022/11/22 11:46:52;;;;;;;6.73;2.10;;;;;;;6.44;72.47;93885.97;4938486;29;20279;-85
2022/11/22 11:49:22;;;;;;;5.10;2.10;;;;;;;6.77;72.57;93885.94;4938336;29;20200;-84
2022/11/22 11:51:53;;;;;;;4.20;1.47;;;;;;;6.40;73.06;93884.72;4951478;29;20541;-85
2022/11/22 11:54:40;;;;;;;4.63;1.60;;;;;;;6.80;73.04;93883.03;4938251;29;20190;-85
2022/11/22 11:57:32;;;;;;;5.70;2.07;;;;;;;6.99;72.71;93885.25;4952561;29;20276;-85